createdAt,value
2023-01-27T00:01:43.893Z,101412.19
2023-01-27T00:04:12.318Z,101407.81
2023-01-27T00:06:45.307Z,101402.56
2023-01-27T00:09:18.127Z,101405.19
2023-01-27T00:12:05.292Z,101403.41
2023-01-27T00:14:34.180Z,101404.31
2023-01-27T00:17:02.592Z,101400.81
2023-01-27T00:19:30.738Z,101390.28
2023-01-27T00:22:17.474Z,101393.81
2023-01-27T00:24:46.194Z,101393.81
2023-01-27T00:27:14.963Z,101385.94
2023-01-27T00:29:43.156Z,101385.03
2023-01-27T00:32:29.926Z,101377.16
2023-01-27T00:34:57.988Z,101376.28
2023-01-27T00:37:26.240Z,101379.78
2023-01-27T00:39:54.947Z,101378.03
2023-01-27T00:42:23.061Z,101367.53
2023-01-27T00:45:13.474Z,101366.69
2023-01-27T00:47:43.222Z,101360.53
2023-01-27T00:50:11.752Z,101360.56
2023-01-27T00:52:40.323Z,101359.66
2023-01-27T00:55:09.181Z,101364.91
2023-01-27T00:57:37.991Z,101358.78
2023-01-27T01:00:07.075Z,101358.78
2023-01-27T01:02:35.870Z,101356.16
2023-01-27T01:05:04.434Z,101350.03
2023-01-27T01:07:32.587Z,101357.91
2023-01-27T01:10:00.728Z,101346.53
2023-01-27T01:12:28.967Z,101337.81
2023-01-27T01:14:59.096Z,101338.66
2023-01-27T01:17:27.521Z,101340.41
2023-01-27T01:19:56.027Z,101333.41
2023-01-27T01:22:24.194Z,101321.16
2023-01-27T01:24:55.056Z,101318.53
2023-01-27T01:27:25.349Z,101321.16
2023-01-27T01:29:57.491Z,101326.41
2023-01-27T01:32:25.491Z,101329.88
2023-01-27T01:35:00.534Z,101325.53
2023-01-27T01:37:30.369Z,101322.88
2023-01-27T01:40:01.784Z,101321.16
2023-01-27T01:42:53.742Z,101320.25
2023-01-27T01:45:37.199Z,101316.75
2023-01-27T01:48:14.813Z,101327.25
2023-01-27T01:50:46.693Z,101317.63
2023-01-27T01:53:15.209Z,101317.63
2023-01-27T01:55:43.627Z,101308.88
2023-01-27T01:58:13.528Z,101306.22
2023-01-27T02:00:42.499Z,101300.13
2023-01-27T02:03:11.080Z,101297.47
2023-01-27T02:05:44.495Z,101292.22
2023-01-27T02:08:30.366Z,101301.84
2023-01-27T02:10:59.085Z,101291.34
2023-01-27T02:13:27.547Z,101287.84
2023-01-27T02:15:56.297Z,101289.59
2023-01-27T02:18:24.807Z,101285.25
2023-01-27T02:20:54.533Z,101281.75
2023-01-27T02:23:29.391Z,101284.38
2023-01-27T02:26:08.876Z,101289.59
2023-01-27T02:28:40.096Z,101290.47
2023-01-27T02:31:08.924Z,101297.50
2023-01-27T02:33:37.750Z,101304.47
2023-01-27T02:36:08.783Z,101308.00
2023-01-27T02:38:41.086Z,101311.50
2023-01-27T02:41:26.567Z,101315.03
2023-01-27T02:43:56.735Z,101311.53
2023-01-27T02:46:25.461Z,101317.66
2023-01-27T02:48:53.889Z,101310.66
2023-01-27T02:51:22.097Z,101307.16
2023-01-27T02:53:50.335Z,101303.66
2023-01-27T02:56:18.594Z,101301.09
2023-01-27T02:58:47.327Z,101298.44
2023-01-27T03:01:16.007Z,101306.31
2023-01-27T03:03:47.734Z,101299.31
2023-01-27T03:06:18.472Z,101294.94
2023-01-27T03:08:46.644Z,101301.06
2023-01-27T03:11:37.252Z,101289.69
2023-01-27T03:14:05.748Z,101283.56
2023-01-27T03:16:53.141Z,101286.19
2023-01-27T03:19:21.256Z,101279.19
2023-01-27T03:21:51.609Z,101275.69
2023-01-27T03:24:21.401Z,101280.94
2023-01-27T03:26:49.695Z,101289.69
2023-01-27T03:29:39.099Z,101291.47
2023-01-27T03:32:07.180Z,101292.31
2023-01-27T03:34:35.372Z,101293.16
2023-01-27T03:37:23.392Z,101285.25
2023-01-27T03:40:10.110Z,101291.34
2023-01-27T03:42:56.917Z,101293.06
2023-01-27T03:45:45.983Z,101291.28
2023-01-27T03:48:21.201Z,101279.00
2023-01-27T03:50:58.866Z,101278.97
2023-01-27T03:53:26.907Z,101268.47
2023-01-27T03:55:55.043Z,101272.81
2023-01-27T03:58:26.943Z,101271.94
2023-01-27T04:01:00.445Z,101278.91
2023-01-27T04:03:49.689Z,101273.63
2023-01-27T04:06:48.061Z,101273.63
2023-01-27T04:09:24.979Z,101285.00
2023-01-27T04:11:56.894Z,101294.69
2023-01-27T04:14:32.527Z,101292.03
2023-01-27T04:17:11.211Z,101282.38
2023-01-27T04:19:39.918Z,101287.63
2023-01-27T04:22:08.817Z,101288.50
2023-01-27T04:24:39.580Z,101274.44
2023-01-27T04:27:13.854Z,101268.34
2023-01-27T04:29:43.024Z,101264.78
2023-01-27T04:32:13.806Z,101266.53
2023-01-27T04:34:42.598Z,101267.44
2023-01-27T04:37:12.769Z,101275.31
2023-01-27T04:39:42.401Z,101271.81
2023-01-27T04:42:11.017Z,101264.84
2023-01-27T04:44:39.164Z,101268.34
2023-01-27T04:47:07.344Z,101273.56
2023-01-27T04:49:36.432Z,101268.25
2023-01-27T04:52:04.416Z,101263.84
2023-01-27T04:54:32.458Z,101267.34
2023-01-27T04:57:03.983Z,101269.09
2023-01-27T04:59:32.149Z,101272.69
2023-01-27T05:02:00.279Z,101281.41
2023-01-27T05:04:31.920Z,101283.13
2023-01-27T05:07:00.504Z,101282.25
2023-01-27T05:09:29.284Z,101284.94
2023-01-27T05:11:57.692Z,101292.81
2023-01-27T05:14:27.508Z,101295.41
2023-01-27T05:16:57.021Z,101298.81
2023-01-27T05:19:24.951Z,101304.13
2023-01-27T05:21:55.880Z,101306.75
2023-01-27T05:24:25.792Z,101304.09
2023-01-27T05:26:58.781Z,101301.44
2023-01-27T05:29:29.113Z,101305.84
2023-01-27T05:31:57.511Z,101310.19
2023-01-27T05:34:26.130Z,101313.66
2023-01-27T05:36:54.279Z,101307.50
2023-01-27T05:39:22.479Z,101314.47
2023-01-27T05:41:50.635Z,101310.94
2023-01-27T05:44:18.741Z,101305.69
2023-01-27T05:46:46.932Z,101305.75
2023-01-27T05:49:15.065Z,101318.03
2023-01-27T05:51:42.998Z,101310.97
2023-01-27T05:54:11.212Z,101317.94
2023-01-27T05:56:39.805Z,101324.06
2023-01-27T05:59:08.467Z,101316.16
2023-01-27T06:01:38.471Z,101325.84
2023-01-27T06:04:07.061Z,101328.41
2023-01-27T06:06:35.442Z,101325.78
2023-01-27T06:09:04.367Z,101322.34
2023-01-27T06:11:32.805Z,101314.44
2023-01-27T06:14:02.211Z,101315.31
2023-01-27T06:16:30.767Z,101314.34
2023-01-27T06:18:59.351Z,101305.59
2023-01-27T06:21:27.580Z,101307.34
2023-01-27T06:23:56.397Z,101307.28
2023-01-27T06:26:27.770Z,101315.09
2023-01-27T06:28:57.900Z,101308.91
2023-01-27T06:31:27.980Z,101312.41
2023-01-27T06:33:56.852Z,101312.44
2023-01-27T06:36:25.223Z,101311.53
2023-01-27T06:38:53.354Z,101309.72
2023-01-27T06:41:21.609Z,101300.00
2023-01-27T06:43:49.639Z,101300.78
2023-01-27T06:46:17.774Z,101297.16
2023-01-27T06:48:48.868Z,101294.34
2023-01-27T06:51:20.443Z,101294.22
2023-01-27T06:53:49.113Z,101288.78
2023-01-27T06:56:17.662Z,101293.13
2023-01-27T06:58:46.381Z,101292.28
2023-01-27T07:01:14.864Z,101287.06
2023-01-27T07:03:44.834Z,101300.16
2023-01-27T07:06:15.278Z,101296.66
2023-01-27T07:08:46.083Z,101296.63
2023-01-27T07:11:14.842Z,101290.28
2023-01-27T07:13:43.706Z,101288.38
2023-01-27T07:16:11.769Z,101278.50
2023-01-27T07:18:40.525Z,101288.06
2023-01-27T07:21:09.967Z,101286.50
2023-01-27T07:23:38.927Z,101285.50
2023-01-27T07:26:19.283Z,101292.22
2023-01-27T07:28:52.838Z,101274.59
2023-01-27T07:31:21.152Z,101269.94
2023-01-27T07:33:49.574Z,101264.75
2023-01-27T07:36:18.398Z,101263.78
2023-01-27T07:38:50.645Z,101260.38
2023-01-27T07:41:20.538Z,101265.53
2023-01-27T07:43:50.203Z,101260.28
2023-01-27T07:46:19.633Z,101262.94
2023-01-27T07:48:47.746Z,101271.44
2023-01-27T07:51:23.980Z,101271.19
2023-01-27T07:53:55.045Z,101272.94
2023-01-27T07:56:23.502Z,101251.53
2023-01-27T07:58:54.933Z,101242.97
2023-01-27T08:01:23.518Z,101229.66
2023-01-27T08:03:51.571Z,101219.19
2023-01-27T08:06:22.347Z,101213.59
2023-01-27T08:08:50.749Z,101199.66
2023-01-27T08:11:23.676Z,101198.69
2023-01-27T08:13:54.025Z,101199.59
2023-01-27T08:16:25.190Z,101193.72
2023-01-27T08:18:54.275Z,101195.09
2023-01-27T08:21:22.658Z,101203.44
2023-01-27T08:23:50.644Z,101205.97
2023-01-27T08:26:18.706Z,101210.19
2023-01-27T08:28:46.907Z,101208.50
2023-01-27T08:31:17.298Z,101210.06
2023-01-27T08:33:50.288Z,101196.69
2023-01-27T08:36:20.161Z,101203.69
2023-01-27T08:38:49.884Z,101193.16
2023-01-27T08:41:23.785Z,101199.16
2023-01-27T08:43:52.117Z,101196.06
2023-01-27T08:46:20.243Z,101193.41
2023-01-27T08:48:50.583Z,101195.91
2023-01-27T08:51:19.009Z,101178.94
2023-01-27T08:53:47.378Z,101166.75
2023-01-27T08:56:16.287Z,101176.31
2023-01-27T08:58:47.628Z,101178.09
2023-01-27T09:01:16.792Z,101177.97
2023-01-27T09:03:45.179Z,101185.97
2023-01-27T09:06:13.941Z,101167.97
2023-01-27T09:08:42.348Z,101165.88
2023-01-27T09:11:16.071Z,101177.97
2023-01-27T09:13:44.368Z,101174.50
2023-01-27T09:16:12.460Z,101165.03
2023-01-27T09:18:41.654Z,101158.19
2023-01-27T09:21:11.130Z,101151.13
2023-01-27T09:23:39.589Z,101144.81
2023-01-27T09:26:08.387Z,101148.97
2023-01-27T09:28:36.570Z,101140.94
2023-01-27T09:31:05.359Z,101142.72
2023-01-27T09:33:33.930Z,101144.25
2023-01-27T09:36:12.819Z,101157.69
2023-01-27T09:38:55.912Z,101155.84
2023-01-27T09:41:46.239Z,101140.47
2023-01-27T09:44:36.163Z,101149.38
2023-01-27T09:47:29.583Z,101159.72
2023-01-27T09:50:35.835Z,101142.06
2023-01-27T09:53:14.500Z,101135.28
2023-01-27T09:55:48.898Z,101125.09
2023-01-27T09:58:36.436Z,101119.78
2023-01-27T10:01:22.874Z,101117.44
2023-01-27T10:04:13.902Z,101115.16
2023-01-27T10:06:51.096Z,101104.41
2023-01-27T10:09:35.965Z,101105.50
2023-01-27T10:12:25.988Z,101105.41
2023-01-27T10:15:17.342Z,101098.75
2023-01-27T10:17:57.608Z,101095.03
2023-01-27T10:20:28.728Z,101093.78
2023-01-27T10:23:25.067Z,101091.63
2023-01-27T10:26:24.821Z,101090.13
2023-01-27T10:29:03.551Z,101091.91
2023-01-27T10:31:53.974Z,101093.34
2023-01-27T10:34:34.045Z,101086.50
2023-01-27T10:37:25.502Z,101073.72
2023-01-27T10:40:23.669Z,101086.03
2023-01-27T10:43:35.381Z,101092.53
2023-01-27T10:46:31.012Z,101084.25
2023-01-27T10:49:15.372Z,101079.78
2023-01-27T10:51:47.850Z,101082.78
2023-01-27T10:54:27.878Z,101074.22
2023-01-27T10:57:24.830Z,101079.47
2023-01-27T11:00:35.750Z,101067.34
2023-01-27T11:03:07.169Z,101068.91
2023-01-27T11:05:50.448Z,101064.03
2023-01-27T11:08:22.224Z,101051.53
2023-01-27T11:11:14.887Z,101052.78
2023-01-27T11:13:43.950Z,101042.16
2023-01-27T11:16:19.971Z,101046.53
2023-01-27T11:18:55.881Z,101043.56
2023-01-27T11:21:27.908Z,101047.19
2023-01-27T11:23:57.584Z,101053.41
2023-01-27T11:26:31.844Z,101050.09
2023-01-27T11:29:13.833Z,101054.50
2023-01-27T11:32:02.222Z,101052.84
2023-01-27T11:34:33.327Z,101048.25
2023-01-27T11:37:08.715Z,101050.09
2023-01-27T11:39:37.113Z,101050.72
2023-01-27T11:42:05.344Z,101051.75
2023-01-27T11:44:35.138Z,101045.97
2023-01-27T11:47:06.771Z,101041.78
2023-01-27T11:49:39.993Z,101035.75
2023-01-27T11:52:17.552Z,101031.91
2023-01-27T11:54:52.438Z,101030.63
2023-01-27T11:57:23.418Z,101029.59
2023-01-27T11:59:59.883Z,101027.88
2023-01-27T12:02:39.406Z,101030.38
2023-01-27T12:05:07.842Z,101029.22
2023-01-27T12:07:58.320Z,101020.22
2023-01-27T12:10:42.589Z,101019.28
2023-01-27T12:13:20.974Z,101005.69
2023-01-27T12:15:55.095Z,101012.75
2023-01-27T12:18:26.895Z,101017.03
2023-01-27T12:21:02.784Z,101006.53
2023-01-27T12:23:33.190Z,101016.13
2023-01-27T12:26:05.998Z,101017.38
2023-01-27T12:28:38.835Z,101019.97
2023-01-27T12:31:32.437Z,101008.00
2023-01-27T12:34:17.636Z,101022.47
2023-01-27T12:36:46.247Z,101014.56
2023-01-27T12:39:47.126Z,101018.06
2023-01-27T12:42:48.037Z,101017.28
2023-01-27T12:45:31.505Z,101018.16
2023-01-27T12:48:19.278Z,101008.47
2023-01-27T12:50:52.462Z,101013.38
2023-01-27T12:53:28.290Z,101012.81
2023-01-27T12:56:15.629Z,101010.38
2023-01-27T12:58:58.585Z,101007.63
2023-01-27T13:01:30.672Z,101019.50
2023-01-27T13:04:05.062Z,101021.06
2023-01-27T13:06:59.434Z,101013.00
2023-01-27T13:09:35.562Z,101011.47
2023-01-27T13:12:30.914Z,101027.19
2023-01-27T13:15:06.067Z,101028.72
2023-01-27T13:17:48.477Z,101023.81
2023-01-27T13:20:27.244Z,101029.50
2023-01-27T13:23:02.693Z,101027.13
2023-01-27T13:25:39.183Z,101031.91
2023-01-27T13:28:09.397Z,101029.59
2023-01-27T13:30:40.817Z,101024.53
2023-01-27T13:33:31.790Z,101019.28
2023-01-27T13:36:07.428Z,101024.00
2023-01-27T13:39:30.163Z,101020.59
2023-01-27T13:42:25.454Z,101025.28
2023-01-27T13:45:04.799Z,101024.59
2023-01-27T13:47:47.916Z,101022.03
2023-01-27T13:51:00.597Z,101023.88
2023-01-27T13:53:28.865Z,101017.78
2023-01-27T13:56:25.415Z,101019.44
2023-01-27T13:59:30.429Z,101017.06
2023-01-27T14:02:17.674Z,101017.19
2023-01-27T14:05:20.922Z,101023.56
2023-01-27T14:08:15.038Z,101016.53
2023-01-27T14:11:06.376Z,101008.97
2023-01-27T14:13:59.463Z,101013.78
2023-01-27T14:17:05.643Z,101003.53
2023-01-27T14:20:20.718Z,101008.28
2023-01-27T14:23:19.007Z,101017.34
2023-01-27T14:26:10.488Z,101017.47
2023-01-27T14:29:03.400Z,101022.09
2023-01-27T14:31:46.611Z,101015.25
2023-01-27T14:34:33.141Z,101007.50
2023-01-27T14:37:07.072Z,101006.72
2023-01-27T14:39:58.219Z,100997.84
2023-01-27T14:42:52.345Z,101008.44
2023-01-27T14:45:48.495Z,101005.97
2023-01-27T14:48:58.812Z,100996.31
2023-01-27T14:51:34.588Z,101000.84
2023-01-27T14:54:17.708Z,100993.09
2023-01-27T14:57:21.740Z,100999.38
2023-01-27T15:00:18.015Z,101001.16
2023-01-27T15:02:46.135Z,101001.03
2023-01-27T15:05:24.996Z,100999.38
2023-01-27T15:08:12.377Z,101000.34
2023-01-27T15:10:59.914Z,100990.75
2023-01-27T15:14:00.876Z,100991.66
2023-01-27T15:16:56.932Z,100996.09
2023-01-27T15:20:07.671Z,100998.78
2023-01-27T15:22:36.508Z,100999.81
2023-01-27T15:25:14.365Z,100999.00
2023-01-27T15:27:44.773Z,100996.28
2023-01-27T15:30:23.094Z,100985.81
2023-01-27T15:32:52.363Z,100982.41
2023-01-27T15:35:41.781Z,100993.09
2023-01-27T15:38:21.040Z,100995.97
2023-01-27T15:41:12.426Z,100988.94
2023-01-27T15:43:44.434Z,100995.91
2023-01-27T15:46:25.024Z,101003.00
2023-01-27T15:48:58.224Z,100997.84
2023-01-27T15:51:26.784Z,100995.25
2023-01-27T15:53:57.985Z,100987.44
2023-01-27T15:56:47.277Z,100996.28
2023-01-27T15:59:22.364Z,100997.25
2023-01-27T16:02:00.600Z,100992.81
2023-01-27T16:04:36.615Z,101001.56
2023-01-27T16:07:05.852Z,101002.44
2023-01-27T16:09:46.460Z,101001.63
2023-01-27T16:12:24.031Z,100998.16
2023-01-27T16:15:01.647Z,100990.34
2023-01-27T16:17:33.801Z,100995.69
2023-01-27T16:20:23.974Z,100997.41
2023-01-27T16:23:05.912Z,101010.59
2023-01-27T16:25:43.415Z,101009.00
2023-01-27T16:28:28.163Z,101004.63
2023-01-27T16:31:06.842Z,101000.41
2023-01-27T16:33:39.343Z,101002.22
2023-01-27T16:36:30.784Z,101007.50
2023-01-27T16:39:07.870Z,100998.72
2023-01-27T16:41:38.553Z,101000.56
2023-01-27T16:44:31.392Z,100998.81
2023-01-27T16:47:14.880Z,101003.28
2023-01-27T16:49:51.065Z,101009.44
2023-01-27T16:52:32.427Z,101004.19
2023-01-27T16:55:19.557Z,101003.28
2023-01-27T16:57:47.777Z,100999.75
2023-01-27T17:00:27.478Z,101003.16
2023-01-27T17:02:59.472Z,100997.91
2023-01-27T17:05:28.119Z,101009.47
2023-01-27T17:08:26.690Z,100998.97
2023-01-27T17:11:16.679Z,100990.28
2023-01-27T17:13:53.845Z,100987.66
2023-01-27T17:16:35.483Z,100975.41
2023-01-27T17:19:27.598Z,100982.53
2023-01-27T17:22:03.820Z,100986.06
2023-01-27T17:24:35.180Z,100979.09
2023-01-27T17:27:05.619Z,100980.88
2023-01-27T17:29:43.304Z,100985.28
2023-01-27T17:32:29.069Z,100987.16
2023-01-27T17:35:00.058Z,100979.25
2023-01-27T17:37:31.368Z,100975.78
2023-01-27T17:40:01.926Z,100982.84
2023-01-27T17:42:32.703Z,100979.44
2023-01-27T17:45:37.270Z,100978.53
2023-01-27T17:48:08.185Z,100967.19
2023-01-27T17:50:38.250Z,100969.91
2023-01-27T17:53:11.598Z,100970.88
2023-01-27T17:55:39.913Z,100974.38
2023-01-27T17:58:15.815Z,100967.47
2023-01-27T18:00:44.647Z,100972.78
2023-01-27T18:03:28.567Z,100973.78
2023-01-27T18:05:57.473Z,100967.72
2023-01-27T18:08:26.018Z,100979.22
2023-01-27T18:10:54.134Z,100971.31
2023-01-27T18:13:27.528Z,100960.03
2023-01-27T18:16:13.274Z,100969.72
2023-01-27T18:18:50.209Z,100968.97
2023-01-27T18:21:26.278Z,100961.06
2023-01-27T18:23:59.764Z,100962.00
2023-01-27T18:26:49.065Z,100956.75
2023-01-27T18:29:23.814Z,100958.50
2023-01-27T18:31:57.986Z,100957.69
2023-01-27T18:34:33.625Z,100958.56
2023-01-27T18:37:21.346Z,100963.84
2023-01-27T18:39:50.493Z,100960.31
2023-01-27T18:42:20.547Z,100955.97
2023-01-27T18:44:55.539Z,100950.75
2023-01-27T18:47:30.632Z,100955.25
2023-01-27T18:50:12.992Z,100948.25
2023-01-27T18:52:42.602Z,100947.44
2023-01-27T18:55:27.263Z,100943.09
2023-01-27T18:58:00.579Z,100942.28
2023-01-27T19:00:36.349Z,100952.84
2023-01-27T19:03:06.266Z,100946.69
2023-01-27T19:05:36.637Z,100939.56
2023-01-27T19:08:11.395Z,100948.38
2023-01-27T19:10:41.046Z,100944.91
2023-01-27T19:13:14.974Z,100942.38
2023-01-27T19:15:50.329Z,100949.47
2023-01-27T19:18:45.566Z,100946.84
2023-01-27T19:21:16.345Z,100944.19
2023-01-27T19:23:46.333Z,100943.34
2023-01-27T19:26:24.581Z,100943.38
2023-01-27T19:28:55.822Z,100940.78
2023-01-27T19:31:24.330Z,100931.19
2023-01-27T19:33:52.509Z,100935.63
2023-01-27T19:36:25.179Z,100924.22
2023-01-27T19:39:09.737Z,100919.88
2023-01-27T19:41:38.176Z,100919.88
2023-01-27T19:44:06.506Z,100922.56
2023-01-27T19:46:35.549Z,100912.09
2023-01-27T19:49:08.920Z,100919.94
2023-01-27T19:51:42.328Z,100915.50
2023-01-27T19:54:10.758Z,100926.88
2023-01-27T19:56:39.159Z,100931.28
2023-01-27T19:59:07.378Z,100922.56
2023-01-27T20:01:35.765Z,100925.19
2023-01-27T20:04:04.133Z,100922.59
2023-01-27T20:06:34.473Z,100921.78
2023-01-27T20:09:07.412Z,100921.84
2023-01-27T20:11:40.068Z,100920.16
2023-01-27T20:14:13.997Z,100916.66
2023-01-27T20:16:43.626Z,100926.31
2023-01-27T20:19:16.273Z,100921.94
2023-01-27T20:21:46.010Z,100921.06
2023-01-27T20:24:18.714Z,100919.38
2023-01-27T20:26:48.577Z,100922.91
2023-01-27T20:29:19.361Z,100917.75
2023-01-27T20:31:49.909Z,100921.31
2023-01-27T20:34:18.823Z,100908.13
2023-01-27T20:36:47.461Z,100906.41
2023-01-27T20:39:19.021Z,100914.28
2023-01-27T20:41:51.829Z,100906.44
2023-01-27T20:44:21.168Z,100910.84
2023-01-27T20:46:49.853Z,100914.44
2023-01-27T20:49:18.703Z,100909.16
2023-01-27T20:51:47.543Z,100910.97
2023-01-27T20:54:16.421Z,100902.16
2023-01-27T20:56:44.750Z,100896.97
2023-01-27T20:59:13.092Z,100897.03
2023-01-27T21:01:41.485Z,100898.75
2023-01-27T21:04:09.987Z,100899.69
2023-01-27T21:06:39.638Z,100893.63
2023-01-27T21:09:10.090Z,100893.69
2023-01-27T21:11:41.209Z,100895.56
2023-01-27T21:14:11.479Z,100889.44
2023-01-27T21:16:39.624Z,100892.09
2023-01-27T21:19:08.763Z,100888.63
2023-01-27T21:21:37.830Z,100886.06
2023-01-27T21:24:07.051Z,100887.84
2023-01-27T21:26:38.827Z,100892.31
2023-01-27T21:29:07.792Z,100889.75
2023-01-27T21:31:38.590Z,100885.41
2023-01-27T21:34:07.141Z,100886.28
2023-01-27T21:36:36.797Z,100887.25
2023-01-27T21:39:06.000Z,100889.03
2023-01-27T21:41:53.217Z,100889.91
2023-01-27T21:44:44.500Z,100880.38
2023-01-27T21:47:19.241Z,100873.34
2023-01-27T21:50:03.395Z,100866.38
2023-01-27T21:52:42.593Z,100862.88
2023-01-27T21:55:31.521Z,100864.63
2023-01-27T21:57:59.837Z,100855.84
2023-01-27T22:00:29.154Z,100852.41
2023-01-27T22:02:59.864Z,100853.28
2023-01-27T22:05:29.150Z,100862.94
2023-01-27T22:07:58.384Z,100856.84
2023-01-27T22:10:29.121Z,100863.88
2023-01-27T22:13:00.417Z,100861.25
2023-01-27T22:15:29.484Z,100854.25
2023-01-27T22:17:59.195Z,100856.84
2023-01-27T22:20:28.307Z,100850.75
2023-01-27T22:22:56.903Z,100842.00
2023-01-27T22:25:27.688Z,100839.41
2023-01-27T22:27:56.777Z,100828.94
2023-01-27T22:30:25.018Z,100837.75
2023-01-27T22:32:54.707Z,100833.41
2023-01-27T22:35:24.770Z,100839.53
2023-01-27T22:37:53.507Z,100831.72
2023-01-27T22:40:23.673Z,100836.09
2023-01-27T22:42:52.278Z,100825.59
2023-01-27T22:45:20.529Z,100822.09
2023-01-27T22:47:50.211Z,100829.13
2023-01-27T22:50:19.783Z,100818.66
2023-01-27T22:52:48.859Z,100816.88
2023-01-27T22:55:17.163Z,100806.44
2023-01-27T22:57:45.695Z,100816.03
2023-01-27T23:00:14.648Z,100808.19
2023-01-27T23:02:46.290Z,100808.19
2023-01-27T23:05:16.440Z,100801.25
2023-01-27T23:07:47.407Z,100805.66
2023-01-27T23:10:15.814Z,100809.22
2023-01-27T23:12:44.128Z,100809.22
2023-01-27T23:15:13.172Z,100803.97
2023-01-27T23:17:42.597Z,100809.19
2023-01-27T23:20:11.463Z,100804.84
2023-01-27T23:22:40.386Z,100804.84
2023-01-27T23:25:09.649Z,100800.50
2023-01-27T23:27:38.791Z,100806.66
2023-01-27T23:30:11.526Z,100804.94
2023-01-27T23:32:41.191Z,100811.97
2023-01-27T23:35:10.144Z,100811.13
2023-01-27T23:37:38.860Z,100814.63
2023-01-27T23:40:08.349Z,100807.66
2023-01-27T23:42:36.575Z,100807.66
2023-01-27T23:45:08.116Z,100813.81
2023-01-27T23:47:36.519Z,100806.78
2023-01-27T23:50:05.692Z,100814.66
2023-01-27T23:52:37.210Z,100812.03
2023-01-27T23:55:07.667Z,100815.53
2023-01-27T23:57:39.804Z,100816.44
